createdAt,value
2019-04-04T00:00:14.315Z,996.37
2019-04-04T00:01:13.396Z,996.31
2019-04-04T00:02:13.425Z,996.32
2019-04-04T00:03:13.375Z,996.30
2019-04-04T00:04:13.373Z,996.30
2019-04-04T00:05:13.356Z,996.22
2019-04-04T00:06:13.352Z,996.25
2019-04-04T00:07:13.351Z,996.28
2019-04-04T00:08:13.400Z,996.27
2019-04-04T00:09:13.306Z,996.27
2019-04-04T00:10:13.311Z,996.25
2019-04-04T00:11:13.282Z,996.15
2019-04-04T00:12:13.314Z,996.20
2019-04-04T00:13:13.265Z,996.16
2019-04-04T00:14:13.541Z,996.15
2019-04-04T00:15:14.941Z,996.14
2019-04-04T00:16:13.955Z,996.18
2019-04-04T00:17:13.962Z,996.21
2019-04-04T00:18:13.234Z,996.23
2019-04-04T00:19:13.190Z,996.29
2019-04-04T00:20:13.341Z,996.26
2019-04-04T00:21:13.169Z,996.19
2019-04-04T00:22:13.156Z,996.11
2019-04-04T00:23:13.146Z,996.14
2019-04-04T00:24:13.156Z,996.19
2019-04-04T00:25:13.125Z,996.29
2019-04-04T00:26:13.966Z,996.37
2019-04-04T00:27:13.672Z,996.37
2019-04-04T00:28:15.007Z,996.44
2019-04-04T00:29:13.078Z,996.44
2019-04-04T00:30:13.087Z,996.40
2019-04-04T00:31:13.055Z,996.41
2019-04-04T00:32:13.056Z,996.39
2019-04-04T00:33:13.034Z,996.38
2019-04-04T00:34:13.846Z,996.39
2019-04-04T00:35:13.033Z,996.29
2019-04-04T00:36:13.971Z,996.14
2019-04-04T00:37:12.985Z,996.00
2019-04-04T00:38:12.976Z,995.90
2019-04-04T00:39:12.968Z,995.86
2019-04-04T00:40:12.961Z,995.89
2019-04-04T00:41:13.538Z,995.94
2019-04-04T00:42:12.928Z,995.84
2019-04-04T00:43:12.921Z,995.83
2019-04-04T00:44:12.905Z,995.85
2019-04-04T00:45:12.891Z,995.95
2019-04-04T00:46:12.883Z,996.13
2019-04-04T00:47:12.899Z,996.29
2019-04-04T00:48:12.866Z,996.29
2019-04-04T00:49:12.863Z,996.22
2019-04-04T00:50:12.852Z,996.11
2019-04-04T00:51:12.827Z,996.05
2019-04-04T00:52:12.834Z,996.03
2019-04-04T00:53:12.826Z,995.98
2019-04-04T00:54:14.125Z,996.00
2019-04-04T00:55:15.553Z,995.95
2019-04-04T00:56:12.773Z,995.94
2019-04-04T00:57:12.825Z,995.97
2019-04-04T00:58:12.751Z,996.01
2019-04-04T00:59:12.762Z,996.12
2019-04-04T01:00:12.800Z,996.20
2019-04-04T01:01:12.715Z,996.19
2019-04-04T01:02:12.707Z,996.25
2019-04-04T01:03:12.732Z,996.17
2019-04-04T01:04:12.687Z,996.20
2019-04-04T01:05:12.676Z,996.20
2019-04-04T01:06:12.668Z,996.25
2019-04-04T01:07:12.652Z,996.23
2019-04-04T01:08:12.669Z,996.27
2019-04-04T01:09:13.724Z,996.23
2019-04-04T01:10:12.639Z,996.17
2019-04-04T01:11:12.631Z,996.21
2019-04-04T01:12:12.607Z,996.26
2019-04-04T01:13:12.586Z,996.22
2019-04-04T01:14:12.581Z,996.21
2019-04-04T01:15:12.612Z,996.16
2019-04-04T01:16:12.594Z,996.08
2019-04-04T01:17:12.550Z,996.07
2019-04-04T01:18:12.542Z,996.15
2019-04-04T01:19:12.530Z,996.18
2019-04-04T01:20:12.543Z,996.23
2019-04-04T01:21:12.523Z,996.19
2019-04-04T01:22:12.490Z,996.27
2019-04-04T01:23:12.481Z,996.29
2019-04-04T01:24:12.470Z,996.22
2019-04-04T01:25:12.487Z,996.25
2019-04-04T01:26:12.450Z,996.17
2019-04-04T01:27:12.438Z,996.19
2019-04-04T01:28:12.448Z,996.14
2019-04-04T01:29:12.421Z,996.15
2019-04-04T01:30:12.728Z,996.23
2019-04-04T01:31:14.733Z,996.09
2019-04-04T01:32:12.454Z,996.17
2019-04-04T01:33:12.391Z,996.02
2019-04-04T01:34:12.361Z,996.00
2019-04-04T01:35:12.393Z,995.99
2019-04-04T01:36:12.359Z,995.90
2019-04-04T01:37:12.327Z,995.97
2019-04-04T01:38:12.311Z,995.90
2019-04-04T01:39:12.306Z,995.89
2019-04-04T01:40:12.300Z,995.86
2019-04-04T01:41:12.318Z,995.86
2019-04-04T01:42:12.298Z,995.82
2019-04-04T01:43:12.289Z,995.83
2019-04-04T01:44:12.247Z,995.82
2019-04-04T01:45:13.206Z,995.78
2019-04-04T01:46:12.977Z,995.80
2019-04-04T01:47:12.215Z,995.78
2019-04-04T01:48:12.206Z,995.76
2019-04-04T01:49:12.215Z,995.81
2019-04-04T01:50:12.185Z,995.86
2019-04-04T01:51:12.181Z,995.95
2019-04-04T01:52:12.217Z,995.98
2019-04-04T01:53:12.146Z,995.96
2019-04-04T01:54:12.138Z,995.85
2019-04-04T01:55:12.129Z,995.75
2019-04-04T01:56:12.290Z,995.63
2019-04-04T01:57:12.110Z,995.66
2019-04-04T01:58:12.139Z,995.58
2019-04-04T01:59:12.931Z,995.59
2019-04-04T02:00:14.744Z,995.68
2019-04-04T02:01:12.066Z,995.75
2019-04-04T02:02:12.061Z,995.72
2019-04-04T02:03:12.036Z,995.70
2019-04-04T02:04:12.058Z,995.72
2019-04-04T02:05:12.015Z,995.72
2019-04-04T02:06:12.003Z,995.69
2019-04-04T02:07:11.995Z,995.68
2019-04-04T02:08:11.989Z,995.64
2019-04-04T02:09:11.990Z,995.69
2019-04-04T02:10:11.962Z,995.71
2019-04-04T02:11:11.963Z,995.72
2019-04-04T02:12:12.015Z,995.69
2019-04-04T02:13:11.926Z,995.64
2019-04-04T02:14:12.498Z,995.63
2019-04-04T02:15:13.729Z,995.64
2019-04-04T02:16:11.904Z,995.61
2019-04-04T02:17:11.885Z,995.57
2019-04-04T02:18:11.875Z,995.63
2019-04-04T02:19:11.859Z,995.59
2019-04-04T02:20:11.875Z,995.57
2019-04-04T02:21:11.843Z,995.48
2019-04-04T02:22:11.828Z,995.42
2019-04-04T02:23:11.821Z,995.45
2019-04-04T02:24:11.804Z,995.43
2019-04-04T02:25:11.834Z,995.44
2019-04-04T02:26:11.816Z,995.44
2019-04-04T02:27:11.778Z,995.47
2019-04-04T02:28:11.827Z,995.48
2019-04-04T02:29:11.802Z,995.44
2019-04-04T02:30:14.828Z,995.35
2019-04-04T02:31:11.729Z,995.24
2019-04-04T02:32:11.757Z,995.26
2019-04-04T02:33:11.713Z,995.23
2019-04-04T02:34:11.716Z,995.18
2019-04-04T02:35:11.873Z,995.20
2019-04-04T02:36:16.327Z,995.25
2019-04-04T02:37:11.677Z,995.20
2019-04-04T02:38:11.669Z,995.23
2019-04-04T02:39:11.785Z,995.26
2019-04-04T02:40:11.643Z,995.25
2019-04-04T02:41:15.054Z,995.24
2019-04-04T02:42:11.615Z,995.14
2019-04-04T02:43:11.598Z,995.19
2019-04-04T02:44:11.582Z,995.21
2019-04-04T02:45:11.613Z,995.24
2019-04-04T02:46:12.417Z,995.22
2019-04-04T02:47:11.552Z,995.24
2019-04-04T02:48:11.542Z,995.20
2019-04-04T02:49:11.524Z,995.30
2019-04-04T02:50:11.518Z,995.23
2019-04-04T02:51:11.546Z,995.35
2019-04-04T02:52:13.292Z,995.31
2019-04-04T02:53:11.498Z,995.33
2019-04-04T02:54:11.470Z,995.34
2019-04-04T02:55:11.574Z,995.31
2019-04-04T02:56:11.446Z,995.28
2019-04-04T02:57:11.455Z,995.31
2019-04-04T02:58:15.056Z,995.27
2019-04-04T02:59:11.427Z,995.26
2019-04-04T03:00:11.465Z,995.23
2019-04-04T03:01:11.401Z,995.31
2019-04-04T03:02:11.414Z,995.26
2019-04-04T03:03:11.393Z,995.29
2019-04-04T03:04:13.538Z,995.31
2019-04-04T03:05:11.350Z,995.26
2019-04-04T03:06:11.341Z,995.26
2019-04-04T03:07:11.330Z,995.26
2019-04-04T03:08:11.317Z,995.30
2019-04-04T03:09:11.311Z,995.30
2019-04-04T03:10:15.042Z,995.34
2019-04-04T03:11:12.281Z,995.34
2019-04-04T03:12:11.284Z,995.30
2019-04-04T03:13:11.267Z,995.30
2019-04-04T03:14:11.263Z,995.37
2019-04-04T03:15:11.274Z,995.39
2019-04-04T03:16:11.223Z,995.42
2019-04-04T03:17:11.228Z,995.44
2019-04-04T03:18:11.210Z,995.47
2019-04-04T03:19:11.998Z,995.48
2019-04-04T03:20:11.188Z,995.45
2019-04-04T03:21:11.201Z,995.44
2019-04-04T03:22:11.243Z,995.40
2019-04-04T03:23:11.157Z,995.46
2019-04-04T03:24:11.139Z,995.37
2019-04-04T03:25:14.192Z,995.41
2019-04-04T03:26:11.150Z,995.42
2019-04-04T03:27:11.111Z,995.41
2019-04-04T03:28:11.119Z,995.39
2019-04-04T03:29:11.110Z,995.37
2019-04-04T03:30:14.646Z,995.26
2019-04-04T03:31:12.058Z,995.26
2019-04-04T03:32:14.595Z,995.23
2019-04-04T03:33:12.124Z,995.25
2019-04-04T03:34:12.788Z,995.23
2019-04-04T03:35:11.016Z,995.19
2019-04-04T03:36:11.007Z,995.23
2019-04-04T03:37:12.475Z,995.24
2019-04-04T03:38:13.469Z,995.28
2019-04-04T03:39:10.981Z,995.30
2019-04-04T03:40:10.977Z,995.34
2019-04-04T03:41:11.017Z,995.30
2019-04-04T03:42:10.979Z,995.35
2019-04-04T03:43:10.932Z,995.39
2019-04-04T03:44:10.920Z,995.38
2019-04-04T03:45:10.902Z,995.35
2019-04-04T03:46:10.896Z,995.38
2019-04-04T03:47:11.372Z,995.31
2019-04-04T03:48:10.893Z,995.29
2019-04-04T03:49:10.876Z,995.34
2019-04-04T03:50:10.861Z,995.39
2019-04-04T03:51:10.841Z,995.46
2019-04-04T03:52:11.623Z,995.36
2019-04-04T03:53:10.852Z,995.48
2019-04-04T03:54:10.806Z,995.42
2019-04-04T03:55:10.791Z,995.42
2019-04-04T03:56:10.786Z,995.50
2019-04-04T03:57:12.191Z,995.51
2019-04-04T03:58:10.763Z,995.48
2019-04-04T03:59:10.769Z,995.50
2019-04-04T04:00:10.745Z,995.42
2019-04-04T04:01:13.207Z,995.49
2019-04-04T04:02:10.713Z,995.56
2019-04-04T04:03:10.706Z,995.55
2019-04-04T04:04:10.717Z,995.53
2019-04-04T04:05:14.571Z,995.48
2019-04-04T04:06:10.669Z,995.46
2019-04-04T04:07:13.919Z,995.53
2019-04-04T04:08:10.685Z,995.54
2019-04-04T04:09:10.638Z,995.52
2019-04-04T04:10:10.650Z,995.51
2019-04-04T04:11:10.615Z,995.43
2019-04-04T04:12:11.462Z,995.42
2019-04-04T04:13:10.596Z,995.37
2019-04-04T04:14:10.598Z,995.36
2019-04-04T04:15:10.595Z,995.36
2019-04-04T04:16:10.559Z,995.34
2019-04-04T04:17:11.709Z,995.32
2019-04-04T04:18:10.539Z,995.33
2019-04-04T04:19:10.528Z,995.35
2019-04-04T04:20:10.537Z,995.29
2019-04-04T04:21:11.316Z,995.26
2019-04-04T04:22:12.855Z,995.27
2019-04-04T04:23:10.482Z,995.24
2019-04-04T04:24:10.564Z,995.28
2019-04-04T04:25:10.462Z,995.30
2019-04-04T04:26:10.509Z,995.23
2019-04-04T04:27:14.428Z,995.34
2019-04-04T04:28:10.450Z,995.24
2019-04-04T04:29:10.413Z,995.27
2019-04-04T04:30:10.403Z,995.26
2019-04-04T04:31:14.266Z,995.24
2019-04-04T04:32:10.387Z,995.26
2019-04-04T04:33:10.393Z,995.19
2019-04-04T04:34:10.369Z,995.23
2019-04-04T04:35:10.357Z,995.19
2019-04-04T04:36:15.017Z,995.14
2019-04-04T04:37:11.333Z,995.19
2019-04-04T04:38:10.346Z,995.20
2019-04-04T04:39:10.305Z,995.11
2019-04-04T04:40:13.631Z,995.14
2019-04-04T04:41:10.282Z,995.12
2019-04-04T04:42:10.287Z,995.11
2019-04-04T04:43:10.295Z,995.11
2019-04-04T04:44:10.254Z,995.15
2019-04-04T04:45:12.131Z,995.15
2019-04-04T04:46:10.285Z,995.17
2019-04-04T04:47:10.225Z,995.11
2019-04-04T04:48:10.211Z,995.16
2019-04-04T04:49:10.231Z,995.20
2019-04-04T04:50:10.224Z,995.22
2019-04-04T04:51:12.007Z,995.32
2019-04-04T04:52:10.158Z,995.31
2019-04-04T04:53:10.148Z,995.28
2019-04-04T04:54:10.221Z,995.22
2019-04-04T04:55:12.041Z,995.25
2019-04-04T04:56:10.118Z,995.17
2019-04-04T04:57:17.529Z,995.21
2019-04-04T04:58:11.300Z,995.19
2019-04-04T04:59:11.118Z,995.20
2019-04-04T05:00:10.073Z,995.15
2019-04-04T05:01:10.081Z,995.21
2019-04-04T05:02:10.052Z,995.21
2019-04-04T05:03:10.067Z,995.18
2019-04-04T05:04:10.031Z,995.19
2019-04-04T05:05:10.027Z,995.21
2019-04-04T05:06:10.002Z,995.18
2019-04-04T05:07:10.016Z,995.14
2019-04-04T05:08:10.654Z,995.17
2019-04-04T05:09:09.971Z,995.14
2019-04-04T05:10:10.090Z,995.19
2019-04-04T05:11:09.954Z,995.24
2019-04-04T05:12:09.966Z,995.30
2019-04-04T05:13:09.923Z,995.33
2019-04-04T05:14:09.914Z,995.37
2019-04-04T05:15:09.939Z,995.31
2019-04-04T05:16:09.900Z,995.31
2019-04-04T05:17:10.200Z,995.32
2019-04-04T05:18:11.870Z,995.31
2019-04-04T05:19:09.861Z,995.23
2019-04-04T05:20:09.878Z,995.16
2019-04-04T05:21:09.840Z,995.10
2019-04-04T05:22:09.869Z,995.08
2019-04-04T05:23:11.195Z,995.09
2019-04-04T05:24:09.806Z,995.17
2019-04-04T05:25:09.824Z,995.22
2019-04-04T05:26:09.956Z,995.20
2019-04-04T05:27:09.792Z,995.27
2019-04-04T05:28:10.713Z,995.32
2019-04-04T05:29:13.272Z,995.40
2019-04-04T05:30:09.749Z,995.40
2019-04-04T05:31:09.745Z,995.34
2019-04-04T05:32:09.715Z,995.36
2019-04-04T05:33:09.715Z,995.36
2019-04-04T05:34:09.722Z,995.30
2019-04-04T05:35:09.717Z,995.24
2019-04-04T05:36:09.716Z,995.27
2019-04-04T05:37:09.666Z,995.30
2019-04-04T05:38:12.202Z,995.35
2019-04-04T05:39:09.639Z,995.41
2019-04-04T05:40:09.670Z,995.46
2019-04-04T05:41:09.665Z,995.53
2019-04-04T05:42:09.628Z,995.55
2019-04-04T05:43:09.622Z,995.54
2019-04-04T05:44:10.334Z,995.50
2019-04-04T05:45:09.615Z,995.62
2019-04-04T05:46:09.568Z,995.54
2019-04-04T05:47:09.560Z,995.54
2019-04-04T05:48:09.545Z,995.43
2019-04-04T05:49:09.573Z,995.49
2019-04-04T05:50:11.343Z,995.49
2019-04-04T05:51:09.539Z,995.48
2019-04-04T05:52:09.524Z,995.46
2019-04-04T05:53:09.522Z,995.47
2019-04-04T05:54:09.479Z,995.35
2019-04-04T05:55:10.934Z,995.38
2019-04-04T05:56:09.476Z,995.33
2019-04-04T05:57:09.459Z,995.43
2019-04-04T05:58:09.438Z,995.35
2019-04-04T05:59:09.462Z,995.40
2019-04-04T06:00:09.417Z,995.32
2019-04-04T06:01:09.411Z,995.38
2019-04-04T06:02:11.516Z,995.39
2019-04-04T06:03:09.379Z,995.39
2019-04-04T06:04:09.368Z,995.43
2019-04-04T06:05:09.383Z,995.45
2019-04-04T06:06:10.609Z,995.42
2019-04-04T06:07:09.329Z,995.39
2019-04-04T06:08:09.347Z,995.36
2019-04-04T06:09:09.319Z,995.42
2019-04-04T06:10:11.870Z,995.42
2019-04-04T06:11:09.287Z,995.40
2019-04-04T06:12:09.277Z,995.43
2019-04-04T06:13:09.263Z,995.53
2019-04-04T06:14:09.274Z,995.48
2019-04-04T06:15:09.245Z,995.45
2019-04-04T06:16:09.234Z,995.46
2019-04-04T06:17:09.237Z,995.40
2019-04-04T06:18:11.748Z,995.50
2019-04-04T06:19:09.225Z,995.44
2019-04-04T06:20:09.195Z,995.45
2019-04-04T06:21:09.184Z,995.48
2019-04-04T06:22:09.193Z,995.46
2019-04-04T06:23:09.184Z,995.48
2019-04-04T06:24:09.149Z,995.47
2019-04-04T06:25:09.166Z,995.52
2019-04-04T06:26:09.128Z,995.59
2019-04-04T06:27:09.739Z,995.60
2019-04-04T06:28:09.878Z,995.63
2019-04-04T06:29:09.091Z,995.65
2019-04-04T06:30:09.077Z,995.71
2019-04-04T06:31:09.085Z,995.66
2019-04-04T06:32:09.062Z,995.68
2019-04-04T06:33:09.204Z,995.71
2019-04-04T06:34:10.425Z,995.72
2019-04-04T06:35:09.025Z,995.74
2019-04-04T06:36:09.010Z,995.72
2019-04-04T06:37:09.028Z,995.74
2019-04-04T06:38:08.990Z,995.68
2019-04-04T06:39:09.001Z,995.68
2019-04-04T06:40:08.963Z,995.70
2019-04-04T06:41:08.955Z,995.74
2019-04-04T06:42:11.346Z,995.73
2019-04-04T06:43:11.539Z,995.72
2019-04-04T06:44:08.925Z,995.75
2019-04-04T06:45:08.935Z,995.78
2019-04-04T06:46:09.062Z,995.77
2019-04-04T06:47:08.916Z,995.81
2019-04-04T06:48:08.878Z,995.83
2019-04-04T06:49:08.865Z,995.85
2019-04-04T06:50:08.958Z,995.85
2019-04-04T06:51:08.870Z,995.80
2019-04-04T06:52:09.479Z,995.73
2019-04-04T06:53:08.822Z,995.81
2019-04-04T06:54:08.811Z,995.79
2019-04-04T06:55:08.801Z,995.75
2019-04-04T06:56:08.794Z,995.87
2019-04-04T06:57:08.811Z,995.84
2019-04-04T06:58:09.710Z,995.87
2019-04-04T06:59:11.240Z,995.81
2019-04-04T07:00:08.754Z,995.82
2019-04-04T07:01:11.151Z,995.82
2019-04-04T07:02:08.792Z,995.79
2019-04-04T07:03:08.741Z,995.82
2019-04-04T07:04:08.702Z,995.79
2019-04-04T07:05:10.539Z,995.90
2019-04-04T07:06:10.228Z,995.86
2019-04-04T07:07:08.672Z,995.88
2019-04-04T07:08:08.667Z,995.84
2019-04-04T07:09:08.673Z,995.89
2019-04-04T07:10:08.785Z,995.81
2019-04-04T07:11:21.189Z,995.82
2019-04-04T07:12:20.843Z,995.75
2019-04-04T07:13:21.100Z,995.84
2019-04-04T07:14:09.591Z,995.88
2019-04-04T07:15:11.139Z,995.85
2019-04-04T07:16:08.579Z,995.85
2019-04-04T07:17:09.503Z,995.87
2019-04-04T07:18:10.175Z,995.85
2019-04-04T07:19:08.551Z,995.91
2019-04-04T07:20:08.538Z,995.92
2019-04-04T07:21:08.515Z,995.95
2019-04-04T07:22:08.504Z,995.93
2019-04-04T07:23:08.512Z,995.94
2019-04-04T07:24:08.492Z,995.88
2019-04-04T07:25:08.469Z,995.91
2019-04-04T07:26:13.996Z,995.91
2019-04-04T07:27:09.442Z,995.93
2019-04-04T07:28:08.459Z,995.96
2019-04-04T07:29:08.428Z,995.97
2019-04-04T07:30:08.421Z,995.95
2019-04-04T07:31:08.401Z,995.94
2019-04-04T07:32:09.485Z,996.02
2019-04-04T07:33:11.790Z,995.97
2019-04-04T07:34:08.398Z,995.97
2019-04-04T07:35:08.466Z,995.97
2019-04-04T07:36:08.378Z,995.96
2019-04-04T07:37:08.344Z,995.93
2019-04-04T07:38:08.333Z,995.98
2019-04-04T07:39:08.345Z,996.00
2019-04-04T07:40:08.333Z,995.93
2019-04-04T07:41:09.045Z,996.00
2019-04-04T07:42:08.297Z,996.03
2019-04-04T07:43:08.730Z,995.97
2019-04-04T07:44:08.256Z,995.95
2019-04-04T07:45:08.251Z,995.99
2019-04-04T07:46:16.162Z,996.02
2019-04-04T07:47:09.219Z,996.02
2019-04-04T07:48:08.219Z,996.01
2019-04-04T07:49:08.200Z,996.00
2019-04-04T07:50:08.188Z,996.08
2019-04-04T07:51:08.185Z,996.06
2019-04-04T07:52:08.197Z,996.02
2019-04-04T07:53:08.237Z,996.04
2019-04-04T07:54:08.178Z,996.06
2019-04-04T07:55:10.921Z,996.08
2019-04-04T07:56:08.140Z,996.13
2019-04-04T07:57:08.112Z,996.08
2019-04-04T07:58:08.141Z,996.11
2019-04-04T07:59:08.089Z,996.14
2019-04-04T08:00:08.089Z,996.12
2019-04-04T08:01:08.066Z,996.13
2019-04-04T08:02:08.084Z,996.15
2019-04-04T08:03:08.047Z,996.19
2019-04-04T08:04:08.037Z,996.23
2019-04-04T08:05:08.019Z,996.19
2019-04-04T08:06:08.017Z,996.22
2019-04-04T08:07:08.028Z,996.25
2019-04-04T08:08:07.986Z,996.21
2019-04-04T08:09:07.977Z,996.27
2019-04-04T08:10:20.050Z,996.29
2019-04-04T08:11:08.953Z,996.31
2019-04-04T08:12:08.068Z,996.30
2019-04-04T08:13:07.934Z,996.26
2019-04-04T08:14:07.926Z,996.24
2019-04-04T08:15:07.906Z,996.22
2019-04-04T08:16:07.899Z,996.21
2019-04-04T08:17:07.917Z,996.26
2019-04-04T08:18:07.884Z,996.18
2019-04-04T08:19:07.860Z,996.21
2019-04-04T08:20:07.879Z,996.16
2019-04-04T08:21:07.845Z,996.14
2019-04-04T08:22:07.880Z,996.09
2019-04-04T08:23:07.848Z,996.10
2019-04-04T08:24:07.815Z,996.09
2019-04-04T08:25:07.802Z,996.17
2019-04-04T08:26:10.037Z,996.18
2019-04-04T08:27:07.778Z,996.20
2019-04-04T08:28:07.767Z,996.19
2019-04-04T08:29:07.791Z,996.22
2019-04-04T08:30:07.753Z,996.26
2019-04-04T08:31:09.859Z,996.25
2019-04-04T08:32:07.719Z,996.26
2019-04-04T08:33:07.744Z,996.28
2019-04-04T08:34:07.704Z,996.26
2019-04-04T08:35:07.689Z,996.26
2019-04-04T08:36:07.828Z,996.23
2019-04-04T08:37:07.664Z,996.23
2019-04-04T08:38:07.656Z,996.28
2019-04-04T08:39:07.709Z,996.27
2019-04-04T08:40:07.635Z,996.15
2019-04-04T08:41:07.635Z,996.14
2019-04-04T08:42:07.642Z,996.10
2019-04-04T08:43:07.602Z,996.02
2019-04-04T08:44:07.588Z,996.02
2019-04-04T08:45:07.576Z,996.00
2019-04-04T08:46:07.567Z,996.01
2019-04-04T08:47:07.550Z,996.05
2019-04-04T08:48:07.577Z,996.09
2019-04-04T08:49:07.543Z,996.19
2019-04-04T08:50:07.544Z,996.24
2019-04-04T08:51:07.588Z,996.28
2019-04-04T08:52:16.531Z,996.25
2019-04-04T08:53:08.482Z,996.29
2019-04-04T08:54:07.474Z,996.27
2019-04-04T08:55:07.557Z,996.26
2019-04-04T08:56:07.477Z,996.25
2019-04-04T08:57:07.451Z,996.19
2019-04-04T08:58:07.429Z,996.17
2019-04-04T08:59:07.416Z,996.08
2019-04-04T09:00:07.407Z,996.05
2019-04-04T09:01:07.396Z,996.02
2019-04-04T09:02:07.404Z,996.00
2019-04-04T09:03:07.399Z,995.96
2019-04-04T09:04:07.356Z,996.00
2019-04-04T09:05:12.298Z,996.03
2019-04-04T09:06:08.342Z,996.09
2019-04-04T09:07:07.324Z,996.14
2019-04-04T09:08:07.325Z,996.11
2019-04-04T09:09:07.338Z,996.12
2019-04-04T09:10:07.301Z,996.13
2019-04-04T09:11:07.284Z,996.15
2019-04-04T09:12:07.326Z,996.15
2019-04-04T09:13:07.270Z,996.16
2019-04-04T09:14:07.254Z,996.15
2019-04-04T09:15:07.255Z,996.22
2019-04-04T09:16:07.226Z,996.18
2019-04-04T09:17:07.214Z,996.18
2019-04-04T09:18:07.207Z,996.23
2019-04-04T09:19:07.197Z,996.17
2019-04-04T09:20:09.489Z,996.19
2019-04-04T09:21:07.175Z,996.14
2019-04-04T09:22:10.814Z,996.20
2019-04-04T09:23:07.149Z,996.25
2019-04-04T09:24:07.138Z,996.23
2019-04-04T09:25:10.166Z,996.22
2019-04-04T09:26:07.138Z,996.28
2019-04-04T09:27:07.100Z,996.33
2019-04-04T09:28:07.092Z,996.30
2019-04-04T09:29:07.082Z,996.34
2019-04-04T09:30:07.069Z,996.29
2019-04-04T09:31:07.068Z,996.33
2019-04-04T09:32:07.079Z,996.30
2019-04-04T09:33:07.098Z,996.32
2019-04-04T09:34:07.033Z,996.35
2019-04-04T09:35:07.014Z,996.33
2019-04-04T09:36:07.001Z,996.34
2019-04-04T09:37:08.816Z,996.30
2019-04-04T09:38:07.038Z,996.31
2019-04-04T09:39:06.998Z,996.36
2019-04-04T09:40:06.958Z,996.29
2019-04-04T09:41:07.556Z,996.34
2019-04-04T09:42:06.943Z,996.36
2019-04-04T09:43:06.922Z,996.28
2019-04-04T09:44:06.954Z,996.30
2019-04-04T09:45:06.927Z,996.24
2019-04-04T09:46:06.895Z,996.22
2019-04-04T09:47:06.877Z,996.22
2019-04-04T09:48:06.868Z,996.18
2019-04-04T09:49:07.005Z,996.23
2019-04-04T09:50:06.867Z,996.18
2019-04-04T09:51:06.833Z,996.16
2019-04-04T09:52:06.826Z,996.13
2019-04-04T09:53:06.810Z,996.14
2019-04-04T09:54:06.819Z,996.17
2019-04-04T09:55:06.817Z,996.18
2019-04-04T09:56:06.791Z,996.16
2019-04-04T09:57:06.765Z,996.16
2019-04-04T09:58:06.754Z,996.21
2019-04-04T09:59:06.772Z,996.22
2019-04-04T10:00:06.737Z,996.23
2019-04-04T10:01:06.927Z,996.22
2019-04-04T10:02:06.712Z,996.27
2019-04-04T10:03:06.695Z,996.27
2019-04-04T10:04:06.692Z,996.30
2019-04-04T10:05:06.923Z,996.27
2019-04-04T10:06:06.666Z,996.38
2019-04-04T10:07:06.664Z,996.36
2019-04-04T10:08:06.649Z,996.30
2019-04-04T10:09:15.627Z,996.36
2019-04-04T10:10:07.862Z,996.28
2019-04-04T10:11:06.642Z,996.32
2019-04-04T10:12:06.605Z,996.38
2019-04-04T10:13:06.588Z,996.37
2019-04-04T10:14:06.581Z,996.41
2019-04-04T10:15:06.569Z,996.38
2019-04-04T10:16:06.577Z,996.37
2019-04-04T10:17:06.543Z,996.35
2019-04-04T10:18:06.533Z,996.42
2019-04-04T10:19:06.523Z,996.39
2019-04-04T10:20:06.531Z,996.36
2019-04-04T10:21:12.023Z,996.37
2019-04-04T10:22:07.535Z,996.32
2019-04-04T10:23:06.503Z,996.33
2019-04-04T10:24:06.499Z,996.32
2019-04-04T10:25:06.457Z,996.27
2019-04-04T10:26:06.467Z,996.27
2019-04-04T10:27:06.445Z,996.26
2019-04-04T10:28:06.416Z,996.22
2019-04-04T10:29:06.435Z,996.20
2019-04-04T10:30:06.398Z,996.29
2019-04-04T10:31:06.387Z,996.25
2019-04-04T10:32:06.396Z,996.26
2019-04-04T10:33:06.365Z,996.28
2019-04-04T10:34:06.353Z,996.25
2019-04-04T10:35:06.359Z,996.21
2019-04-04T10:36:06.330Z,996.21
2019-04-04T10:37:06.326Z,996.23
2019-04-04T10:38:06.316Z,996.29
2019-04-04T10:39:06.295Z,996.26
2019-04-04T10:40:06.292Z,996.25
2019-04-04T10:41:06.302Z,996.29
2019-04-04T10:42:06.266Z,996.31
2019-04-04T10:43:06.248Z,996.33
2019-04-04T10:44:06.240Z,996.31
2019-04-04T10:45:07.071Z,996.31
2019-04-04T10:46:06.217Z,996.31
2019-04-04T10:47:06.249Z,996.31
2019-04-04T10:48:06.284Z,996.35
2019-04-04T10:49:08.361Z,996.28
2019-04-04T10:50:06.181Z,996.24
2019-04-04T10:51:06.167Z,996.21
2019-04-04T10:52:06.186Z,996.17
2019-04-04T10:53:06.158Z,996.15
2019-04-04T10:54:06.135Z,996.10
2019-04-04T10:55:06.121Z,996.12
2019-04-04T10:56:06.108Z,996.10
2019-04-04T10:57:06.121Z,996.09
2019-04-04T10:58:06.109Z,996.12
2019-04-04T10:59:06.099Z,996.19
2019-04-04T11:00:06.057Z,996.19
2019-04-04T11:01:06.060Z,996.23
2019-04-04T11:02:06.047Z,996.30
2019-04-04T11:03:06.057Z,996.33
2019-04-04T11:04:06.126Z,996.24
2019-04-04T11:05:06.013Z,996.32
2019-04-04T11:06:06.031Z,996.36
2019-04-04T11:07:05.993Z,996.35
2019-04-04T11:08:05.987Z,996.38
2019-04-04T11:09:05.956Z,996.37
2019-04-04T11:10:05.954Z,996.38
2019-04-04T11:11:05.938Z,996.36
2019-04-04T11:12:05.953Z,996.36
2019-04-04T11:13:05.947Z,996.32
2019-04-04T11:14:05.905Z,996.38
2019-04-04T11:15:05.911Z,996.29
2019-04-04T11:16:05.902Z,996.36
2019-04-04T11:17:06.004Z,996.35
2019-04-04T11:18:05.881Z,996.43
2019-04-04T11:19:05.866Z,996.46
2019-04-04T11:20:06.622Z,996.47
2019-04-04T11:21:05.828Z,996.56
2019-04-04T11:22:05.817Z,996.58
2019-04-04T11:23:05.832Z,996.61
2019-04-04T11:24:05.819Z,996.63
2019-04-04T11:25:05.865Z,996.66
2019-04-04T11:26:05.779Z,996.68
2019-04-04T11:27:06.271Z,996.68
2019-04-04T11:28:05.745Z,996.71
2019-04-04T11:29:05.742Z,996.67
2019-04-04T11:30:05.769Z,996.68
2019-04-04T11:31:05.716Z,996.72
2019-04-04T11:32:05.711Z,996.73
2019-04-04T11:33:05.690Z,996.68
2019-04-04T11:34:05.694Z,996.75
2019-04-04T11:35:05.672Z,996.67
2019-04-04T11:36:05.740Z,996.62
2019-04-04T11:37:05.650Z,996.63
2019-04-04T11:38:05.647Z,996.61
2019-04-04T11:39:05.625Z,996.61
2019-04-04T11:40:05.621Z,996.60
2019-04-04T11:41:05.757Z,996.60
2019-04-04T11:42:05.592Z,996.65
2019-04-04T11:43:05.587Z,996.71
2019-04-04T11:44:05.604Z,996.66
2019-04-04T11:45:05.562Z,996.69
2019-04-04T11:46:05.554Z,996.76
2019-04-04T11:47:05.601Z,996.71
2019-04-04T11:48:05.542Z,996.72
2019-04-04T11:49:05.542Z,996.75
2019-04-04T11:50:05.509Z,996.71
2019-04-04T11:51:05.528Z,996.67
2019-04-04T11:52:05.478Z,996.72
2019-04-04T11:53:05.470Z,996.72
2019-04-04T11:54:05.458Z,996.74
2019-04-04T11:55:05.473Z,996.83
2019-04-04T11:56:05.450Z,996.86
2019-04-04T11:57:05.609Z,996.84
2019-04-04T11:58:05.435Z,996.82
2019-04-04T11:59:07.996Z,996.83
2019-04-04T12:00:05.464Z,996.83
2019-04-04T12:01:05.402Z,996.86
2019-04-04T12:02:05.401Z,996.86
2019-04-04T12:03:05.368Z,996.83
2019-04-04T12:04:05.373Z,996.84
2019-04-04T12:05:05.347Z,996.90
2019-04-04T12:06:05.330Z,996.92
2019-04-04T12:07:05.314Z,996.96
2019-04-04T12:08:05.295Z,996.99
2019-04-04T12:09:05.306Z,996.97
2019-04-04T12:10:07.571Z,996.94
2019-04-04T12:11:05.278Z,996.91
2019-04-04T12:12:05.278Z,996.81
2019-04-04T12:13:05.245Z,996.81
2019-04-04T12:14:05.309Z,996.76
2019-04-04T12:15:05.227Z,996.85
2019-04-04T12:16:05.220Z,996.79
2019-04-04T12:17:05.202Z,996.80
2019-04-04T12:18:05.187Z,996.93
2019-04-04T12:19:05.181Z,997.02
2019-04-04T12:20:05.193Z,997.01
2019-04-04T12:21:05.175Z,997.07
2019-04-04T12:22:05.157Z,997.12
2019-04-04T12:23:05.134Z,997.02
2019-04-04T12:24:05.207Z,997.11
2019-04-04T12:25:05.113Z,997.16
2019-04-04T12:26:05.126Z,997.21
2019-04-04T12:27:05.100Z,997.22
2019-04-04T12:28:05.088Z,997.22